sensor_id;sensor_type;location;lat;lon;timestamp;pressure;altitude;pressure_sealevel;temperature;humidity
49315;BME280;36672;50.710;12.498;2022-12-10T00:01:33;97411.75;;;0.48;73.97
49315;BME280;36672;50.710;12.498;2022-12-10T00:03:59;97446.16;;;0.67;74.13
49315;BME280;36672;50.710;12.498;2022-12-10T00:06:27;97442.53;;;0.68;74.38
49315;BME280;36672;50.710;12.498;2022-12-10T00:08:53;97420.53;;;0.49;74.09
49315;BME280;36672;50.710;12.498;2022-12-10T00:11:20;97449.50;;;0.69;74.49
49315;BME280;36672;50.710;12.498;2022-12-10T00:13:47;97458.13;;;0.71;74.50
49315;BME280;36672;50.710;12.498;2022-12-10T00:16:14;97430.69;;;0.62;74.31
49315;BME280;36672;50.710;12.498;2022-12-10T00:18:40;97448.47;;;0.70;74.57
49315;BME280;36672;50.710;12.498;2022-12-10T00:21:09;97456.31;;;0.71;74.43
49315;BME280;36672;50.710;12.498;2022-12-10T00:23:35;97453.78;;;0.70;74.34
49315;BME280;36672;50.710;12.498;2022-12-10T00:26:09;97451.13;;;0.70;74.42
49315;BME280;36672;50.710;12.498;2022-12-10T00:28:35;97447.66;;;0.69;74.45
49315;BME280;36672;50.710;12.498;2022-12-10T00:31:12;97441.31;;;0.62;74.47
49315;BME280;36672;50.710;12.498;2022-12-10T00:33:38;97443.00;;;0.63;74.75
49315;BME280;36672;50.710;12.498;2022-12-10T00:36:09;97443.84;;;0.63;74.73
49315;BME280;36672;50.710;12.498;2022-12-10T00:38:36;97429.38;;;0.58;75.04
49315;BME280;36672;50.710;12.498;2022-12-10T00:41:02;97451.31;;;0.68;75.17
49315;BME280;36672;50.710;12.498;2022-12-10T00:43:27;97435.38;;;0.60;75.32
49315;BME280;36672;50.710;12.498;2022-12-10T00:45:53;97446.50;;;0.72;75.88
49315;BME280;36672;50.710;12.498;2022-12-10T00:48:20;97415.56;;;0.54;76.31
49315;BME280;36672;50.710;12.498;2022-12-10T00:50:55;97446.19;;;0.75;76.40
49315;BME280;36672;50.710;12.498;2022-12-10T00:53:20;97452.16;;;0.77;76.52
49315;BME280;36672;50.710;12.498;2022-12-10T00:55:46;97446.66;;;0.78;76.91
49315;BME280;36672;50.710;12.498;2022-12-10T00:58:11;97452.66;;;0.80;77.20
49315;BME280;36672;50.710;12.498;2022-12-10T01:00:36;97453.50;;;0.81;77.50
49315;BME280;36672;50.710;12.498;2022-12-10T01:03:02;97459.16;;;0.86;77.61
49315;BME280;36672;50.710;12.498;2022-12-10T01:05:27;97439.53;;;0.71;77.63
49315;BME280;36672;50.710;12.498;2022-12-10T01:07:52;97454.84;;;0.85;77.86
49315;BME280;36672;50.710;12.498;2022-12-10T01:10:18;97428.38;;;0.67;78.17
49315;BME280;36672;50.710;12.498;2022-12-10T01:12:44;97459.16;;;0.86;78.38
49315;BME280;36672;50.710;12.498;2022-12-10T01:15:11;97455.50;;;0.87;78.43
49315;BME280;36672;50.710;12.498;2022-12-10T01:17:36;97459.66;;;0.90;78.73
49315;BME280;36672;50.710;12.498;2022-12-10T01:20:01;97462.97;;;0.92;78.61
49315;BME280;36672;50.710;12.498;2022-12-10T01:22:27;97469.97;;;0.93;78.61
49315;BME280;36672;50.710;12.498;2022-12-10T01:24:52;97425.41;;;0.70;78.83
49315;BME280;36672;50.710;12.498;2022-12-10T01:27:17;97471.31;;;0.97;79.13
49315;BME280;36672;50.710;12.498;2022-12-10T01:29:42;97445.38;;;0.83;79.00
49315;BME280;36672;50.710;12.498;2022-12-10T01:32:08;97467.47;;;1.00;79.10
49315;BME280;36672;50.710;12.498;2022-12-10T01:34:33;97462.84;;;1.02;79.17
49315;BME280;36672;50.710;12.498;2022-12-10T01:36:59;97429.56;;;0.81;79.12
49315;BME280;36672;50.710;12.498;2022-12-10T01:39:24;97423.41;;;0.80;78.96
49315;BME280;36672;50.710;12.498;2022-12-10T01:41:57;97473.97;;;1.05;79.13
49315;BME280;36672;50.710;12.498;2022-12-10T01:46:54;97453.84;;;0.94;79.00
49315;BME280;36672;50.710;12.498;2022-12-10T01:51:51;97473.31;;;1.03;79.20
49315;BME280;36672;50.710;12.498;2022-12-10T01:54:29;97471.00;;;1.00;79.26
49315;BME280;36672;50.710;12.498;2022-12-10T01:57:06;97472.63;;;1.01;79.29
49315;BME280;36672;50.710;12.498;2022-12-10T01:59:33;97467.47;;;1.00;79.12
49315;BME280;36672;50.710;12.498;2022-12-10T02:02:03;97470.13;;;1.00;79.35
49315;BME280;36672;50.710;12.498;2022-12-10T02:12:49;97473.78;;;0.98;79.16
49315;BME280;36672;50.710;12.498;2022-12-10T02:15:30;97476.63;;;0.97;79.20
49315;BME280;36672;50.710;12.498;2022-12-10T02:20:36;97434.41;;;0.77;79.42
49315;BME280;36672;50.710;12.498;2022-12-10T02:23:12;97456.16;;;0.89;79.67
49315;BME280;36672;50.710;12.498;2022-12-10T02:28:39;97473.28;;;0.87;79.70
49315;BME280;36672;50.710;12.498;2022-12-10T02:31:11;97459.31;;;0.76;79.58
49315;BME280;36672;50.710;12.498;2022-12-10T02:33:43;97469.94;;;0.85;79.66
49315;BME280;36672;50.710;12.498;2022-12-10T02:36:12;97473.97;;;0.89;79.84
49315;BME280;36672;50.710;12.498;2022-12-10T02:38:39;97475.25;;;0.85;80.20
49315;BME280;36672;50.710;12.498;2022-12-10T02:41:20;97477.94;;;0.85;80.37
49315;BME280;36672;50.710;12.498;2022-12-10T02:43:51;97460.47;;;0.82;80.32
49315;BME280;36672;50.710;12.498;2022-12-10T02:46:17;97478.44;;;0.88;80.04
49315;BME280;36672;50.710;12.498;2022-12-10T02:48:45;97471.63;;;0.86;80.11
49315;BME280;36672;50.710;12.498;2022-12-10T02:51:11;97475.44;;;0.83;80.14
49315;BME280;36672;50.710;12.498;2022-12-10T02:53:43;97482.25;;;0.86;80.51
49315;BME280;36672;50.710;12.498;2022-12-10T02:56:20;97459.31;;;0.76;80.43
49315;BME280;36672;50.710;12.498;2022-12-10T03:02:05;97484.91;;;0.86;80.40
49315;BME280;36672;50.710;12.498;2022-12-10T03:05:01;97468.63;;;0.72;80.32
49315;BME280;36672;50.710;12.498;2022-12-10T03:07:34;97489.91;;;0.89;80.23
49315;BME280;36672;50.710;12.498;2022-12-10T03:12:46;97487.41;;;0.87;80.48
49315;BME280;36672;50.710;12.498;2022-12-10T03:15:13;97489.75;;;0.90;80.54
49315;BME280;36672;50.710;12.498;2022-12-10T03:17:41;97487.09;;;0.90;80.61
49315;BME280;36672;50.710;12.498;2022-12-10T03:20:12;97486.09;;;0.91;80.32
49315;BME280;36672;50.710;12.498;2022-12-10T03:22:40;97461.28;;;0.74;80.58
49315;BME280;36672;50.710;12.498;2022-12-10T03:25:10;97470.13;;;0.83;80.69
49315;BME280;36672;50.710;12.498;2022-12-10T03:27:39;97461.97;;;0.76;80.30
49315;BME280;36672;50.710;12.498;2022-12-10T03:30:06;97467.97;;;0.87;80.58
49315;BME280;36672;50.710;12.498;2022-12-10T03:32:33;97449.00;;;0.73;80.57
49315;BME280;36672;50.710;12.498;2022-12-10T03:34:59;97483.44;;;0.91;80.47
49315;BME280;36672;50.710;12.498;2022-12-10T03:37:27;97464.13;;;0.81;80.55
49315;BME280;36672;50.710;12.498;2022-12-10T03:39:55;97448.34;;;0.71;80.66
49315;BME280;36672;50.710;12.498;2022-12-10T03:42:21;97454.66;;;0.70;80.58
49315;BME280;36672;50.710;12.498;2022-12-10T03:44:50;97482.09;;;0.87;80.64
49315;BME280;36672;50.710;12.498;2022-12-10T03:47:15;97481.25;;;0.87;80.71
49315;BME280;36672;50.710;12.498;2022-12-10T03:49:42;97481.44;;;0.85;80.58
49315;BME280;36672;50.710;12.498;2022-12-10T03:52:08;97462.28;;;0.73;80.63
49315;BME280;36672;50.710;12.498;2022-12-10T03:54:33;97472.28;;;0.79;80.98
49315;BME280;36672;50.710;12.498;2022-12-10T03:56:58;97464.63;;;0.76;80.72
49315;BME280;36672;50.710;12.498;2022-12-10T03:59:24;97465.44;;;0.77;80.72
49315;BME280;36672;50.710;12.498;2022-12-10T04:01:49;97459.97;;;0.70;80.75
49315;BME280;36672;50.710;12.498;2022-12-10T04:04:15;97465.78;;;0.74;80.80
49315;BME280;36672;50.710;12.498;2022-12-10T04:06:41;97478.56;;;0.78;80.66
49315;BME280;36672;50.710;12.498;2022-12-10T04:09:11;97489.06;;;0.80;81.03
49315;BME280;36672;50.710;12.498;2022-12-10T04:11:37;97452.28;;;0.59;80.89
49315;BME280;36672;50.710;12.498;2022-12-10T04:14:02;97485.56;;;0.79;81.01
49315;BME280;36672;50.710;12.498;2022-12-10T04:17:06;97492.72;;;0.79;80.79
49315;BME280;36672;50.710;12.498;2022-12-10T04:19:31;97492.72;;;0.79;80.99
49315;BME280;36672;50.710;12.498;2022-12-10T04:21:57;97453.47;;;0.56;80.79
49315;BME280;36672;50.710;12.498;2022-12-10T04:24:41;97486.72;;;0.77;81.11
49315;BME280;36672;50.710;12.498;2022-12-10T04:27:29;97489.22;;;0.78;81.30
49315;BME280;36672;50.710;12.498;2022-12-10T04:29:56;97475.44;;;0.75;81.38
49315;BME280;36672;50.710;12.498;2022-12-10T04:32:23;97471.94;;;0.74;81.20
49315;BME280;36672;50.710;12.498;2022-12-10T04:34:48;97481.75;;;0.82;81.29
49315;BME280;36672;50.710;12.498;2022-12-10T04:37:16;97465.28;;;0.70;81.38
49315;BME280;36672;50.710;12.498;2022-12-10T04:39:42;97481.09;;;0.80;81.45
49315;BME280;36672;50.710;12.498;2022-12-10T04:42:08;97463.31;;;0.72;81.69
49315;BME280;36672;50.710;12.498;2022-12-10T04:44:33;97468.78;;;0.79;81.52
49315;BME280;36672;50.710;12.498;2022-12-10T04:46:59;97448.13;;;0.64;81.40
49315;BME280;36672;50.710;12.498;2022-12-10T04:49:24;97454.97;;;0.67;81.34
49315;BME280;36672;50.710;12.498;2022-12-10T04:51:50;97463.63;;;0.69;81.50
49315;BME280;36672;50.710;12.498;2022-12-10T04:54:16;97461.63;;;0.71;81.61
49315;BME280;36672;50.710;12.498;2022-12-10T04:56:42;97473.44;;;0.77;81.67
49315;BME280;36672;50.710;12.498;2022-12-10T04:59:08;97440.97;;;0.57;81.25
49315;BME280;36672;50.710;12.498;2022-12-10T05:01:34;97464.25;;;0.63;81.61
49315;BME280;36672;50.710;12.498;2022-12-10T05:04:02;97442.66;;;0.50;81.64
49315;BME280;36672;50.710;12.498;2022-12-10T05:06:29;97475.41;;;0.67;82.15
49315;BME280;36672;50.710;12.498;2022-12-10T05:08:55;97474.59;;;0.66;81.89
49315;BME280;36672;50.710;12.498;2022-12-10T05:11:23;97462.25;;;0.57;81.81
49315;BME280;36672;50.710;12.498;2022-12-10T05:13:49;97471.94;;;0.66;81.83
49315;BME280;36672;50.710;12.498;2022-12-10T05:16:17;97447.97;;;0.50;81.79
49315;BME280;36672;50.710;12.498;2022-12-10T05:18:43;97466.56;;;0.58;81.85
49315;BME280;36672;50.710;12.498;2022-12-10T05:21:16;97476.06;;;0.60;81.89
49315;BME280;36672;50.710;12.498;2022-12-10T05:23:45;97467.91;;;0.62;81.85
49315;BME280;36672;50.710;12.498;2022-12-10T05:26:16;97477.56;;;0.63;81.99
49315;BME280;36672;50.710;12.498;2022-12-10T05:28:49;97470.22;;;0.57;82.12
49315;BME280;36672;50.710;12.498;2022-12-10T05:31:20;97492.34;;;0.65;81.89
49315;BME280;36672;50.710;12.498;2022-12-10T05:33:46;97486.03;;;0.67;82.00
49315;BME280;36672;50.710;12.498;2022-12-10T05:36:13;97487.19;;;0.64;81.85
49315;BME280;36672;50.710;12.498;2022-12-10T05:38:40;97491.53;;;0.65;81.99
49315;BME280;36672;50.710;12.498;2022-12-10T05:41:08;97490.19;;;0.61;82.23
49315;BME280;36672;50.710;12.498;2022-12-10T05:43:34;97496.16;;;0.63;82.23
49315;BME280;36672;50.710;12.498;2022-12-10T05:46:05;97497.84;;;0.64;82.46
49315;BME280;36672;50.710;12.498;2022-12-10T05:48:32;97498.50;;;0.66;82.13
49315;BME280;36672;50.710;12.498;2022-12-10T05:50:57;97471.22;;;0.47;82.16
49315;BME280;36672;50.710;12.498;2022-12-10T05:53:23;97497.31;;;0.60;82.45
49315;BME280;36672;50.710;12.498;2022-12-10T05:55:49;97506.31;;;0.68;82.27
49315;BME280;36672;50.710;12.498;2022-12-10T05:58:15;97487.84;;;0.58;82.35
49315;BME280;36672;50.710;12.498;2022-12-10T06:00:41;97481.50;;;0.51;82.27
49315;BME280;36672;50.710;12.498;2022-12-10T06:03:07;97512.44;;;0.68;81.92
49315;BME280;36672;50.710;12.498;2022-12-10T06:05:39;97511.94;;;0.64;82.17
49315;BME280;36672;50.710;12.498;2022-12-10T06:08:06;97506.78;;;0.63;82.01
49315;BME280;36672;50.710;12.498;2022-12-10T06:10:34;97516.78;;;0.69;82.34
49315;BME280;36672;50.710;12.498;2022-12-10T06:13:00;97519.28;;;0.71;82.38
49315;BME280;36672;50.710;12.498;2022-12-10T06:15:25;97506.78;;;0.63;82.15
49315;BME280;36672;50.710;12.498;2022-12-10T06:17:51;97523.44;;;0.73;82.13
49315;BME280;36672;50.710;12.498;2022-12-10T06:20:16;97510.66;;;0.69;82.07
49315;BME280;36672;50.710;12.498;2022-12-10T06:22:42;97520.47;;;0.76;82.13
49315;BME280;36672;50.710;12.498;2022-12-10T06:25:07;97514.94;;;0.70;82.04
49315;BME280;36672;50.710;12.498;2022-12-10T06:27:33;97512.97;;;0.63;81.64
49315;BME280;36672;50.710;12.498;2022-12-10T06:29:58;97502.31;;;0.63;81.98
49315;BME280;36672;50.710;12.498;2022-12-10T06:32:24;97539.59;;;0.80;82.07
49315;BME280;36672;50.710;12.498;2022-12-10T06:34:49;97538.56;;;0.81;81.78
49315;BME280;36672;50.710;12.498;2022-12-10T06:37:15;97519.09;;;0.64;81.73
49315;BME280;36672;50.710;12.498;2022-12-10T06:39:40;97539.25;;;0.75;82.11
49315;BME280;36672;50.710;12.498;2022-12-10T06:42:05;97550.03;;;0.73;81.74
49315;BME280;36672;50.710;12.498;2022-12-10T06:44:31;97531.22;;;0.67;82.07
49315;BME280;36672;50.710;12.498;2022-12-10T06:46:56;97546.88;;;0.78;81.75
49315;BME280;36672;50.710;12.498;2022-12-10T06:49:22;97545.22;;;0.77;81.42
49315;BME280;36672;50.710;12.498;2022-12-10T06:51:47;97539.72;;;0.70;81.68
49315;BME280;36672;50.710;12.498;2022-12-10T06:54:13;97551.06;;;0.80;81.91
49315;BME280;36672;50.710;12.498;2022-12-10T06:56:38;97541.41;;;0.71;81.59
49315;BME280;36672;50.710;12.498;2022-12-10T06:59:05;97523.59;;;0.63;81.71
49315;BME280;36672;50.710;12.498;2022-12-10T07:01:31;97527.41;;;0.61;81.68
49315;BME280;36672;50.710;12.498;2022-12-10T07:03:57;97547.53;;;0.72;81.41
49315;BME280;36672;50.710;12.498;2022-12-10T07:06:24;97550.34;;;0.70;81.33
49315;BME280;36672;50.710;12.498;2022-12-10T07:08:50;97535.22;;;0.62;81.69
49315;BME280;36672;50.710;12.498;2022-12-10T07:11:18;97558.00;;;0.73;81.56
49315;BME280;36672;50.710;12.498;2022-12-10T07:13:44;97563.00;;;0.76;81.61
49315;BME280;36672;50.710;12.498;2022-12-10T07:16:16;97566.50;;;0.77;81.65
49315;BME280;36672;50.710;12.498;2022-12-10T07:18:41;97544.53;;;0.67;81.68
49315;BME280;36672;50.710;12.498;2022-12-10T07:21:34;97570.13;;;0.76;81.48
49315;BME280;36672;50.710;12.498;2022-12-10T07:24:03;97557.34;;;0.79;81.66
49315;BME280;36672;50.710;12.498;2022-12-10T07:26:30;97560.00;;;0.79;81.62
49315;BME280;36672;50.710;12.498;2022-12-10T07:28:59;97561.53;;;0.82;81.65
49315;BME280;36672;50.710;12.498;2022-12-10T07:31:25;97567.00;;;0.80;81.43
49315;BME280;36672;50.710;12.498;2022-12-10T07:33:51;97570.47;;;0.81;81.58
49315;BME280;36672;50.710;12.498;2022-12-10T07:36:18;97542.03;;;0.65;81.63
49315;BME280;36672;50.710;12.498;2022-12-10T07:38:43;97578.31;;;0.83;81.53
49315;BME280;36672;50.710;12.498;2022-12-10T07:41:11;97583.78;;;0.81;81.50
49315;BME280;36672;50.710;12.498;2022-12-10T07:43:38;97580.28;;;0.80;81.33
49315;BME280;36672;50.710;12.498;2022-12-10T07:46:15;97576.47;;;0.83;81.41
49315;BME280;36672;50.710;12.498;2022-12-10T07:48:43;97584.28;;;0.85;81.31
49315;BME280;36672;50.710;12.498;2022-12-10T07:51:09;97585.66;;;0.89;81.23
49315;BME280;36672;50.710;12.498;2022-12-10T07:53:34;97561.16;;;0.77;80.95
49315;BME280;36672;50.710;12.498;2022-12-10T07:56:00;97584.81;;;0.88;81.02
49315;BME280;36672;50.710;12.498;2022-12-10T07:58:25;97587.31;;;0.90;80.95
49315;BME280;36672;50.710;12.498;2022-12-10T08:00:51;97574.00;;;0.81;80.53
49315;BME280;36672;50.710;12.498;2022-12-10T08:03:16;97589.66;;;0.93;80.56
49315;BME280;36672;50.710;12.498;2022-12-10T08:05:42;97566.00;;;0.81;80.90
49315;BME280;36672;50.710;12.498;2022-12-10T08:08:07;97583.47;;;0.92;80.46
49315;BME280;36672;50.710;12.498;2022-12-10T08:10:34;97592.81;;;0.96;80.48
49315;BME280;36672;50.710;12.498;2022-12-10T08:12:59;97594.34;;;0.99;80.32
49315;BME280;36672;50.710;12.498;2022-12-10T08:15:25;97578.03;;;0.94;80.39
49315;BME280;36672;50.710;12.498;2022-12-10T08:17:50;97577.69;;;0.97;79.97
49315;BME280;36672;50.710;12.498;2022-12-10T08:20:16;97588.66;;;1.02;80.10
49315;BME280;36672;50.710;12.498;2022-12-10T08:22:41;97593.34;;;1.00;79.92
49315;BME280;36672;50.710;12.498;2022-12-10T08:25:07;97593.66;;;0.97;79.99
49315;BME280;36672;50.710;12.498;2022-12-10T08:27:32;97591.00;;;0.97;79.81
49315;BME280;36672;50.710;12.498;2022-12-10T08:29:57;97579.31;;;0.90;79.52
49315;BME280;36672;50.710;12.498;2022-12-10T08:32:23;97558.69;;;0.75;79.67
49315;BME280;36672;50.710;12.498;2022-12-10T08:34:48;97588.66;;;0.94;79.53
49315;BME280;36672;50.710;12.498;2022-12-10T08:37:14;97599.78;;;0.97;79.35
49315;BME280;36672;50.710;12.498;2022-12-10T08:39:39;97592.63;;;0.90;79.59
49315;BME280;36672;50.710;12.498;2022-12-10T08:42:05;97600.13;;;0.94;79.12
49315;BME280;36672;50.710;12.498;2022-12-10T08:44:31;97597.28;;;0.96;79.03
49315;BME280;36672;50.710;12.498;2022-12-10T08:46:56;97563.19;;;0.75;79.08
49315;BME280;36672;50.710;12.498;2022-12-10T08:49:21;97608.28;;;1.01;78.88
49315;BME280;36672;50.710;12.498;2022-12-10T08:51:47;97598.84;;;1.07;78.73
49315;BME280;36672;50.710;12.498;2022-12-10T08:54:12;97604.31;;;1.05;78.48
49315;BME280;36672;50.710;12.498;2022-12-10T08:56:37;97581.50;;;0.94;78.46
49315;BME280;36672;50.710;12.498;2022-12-10T08:59:05;97608.50;;;1.16;78.88
49315;BME280;36672;50.710;12.498;2022-12-10T09:01:30;97570.22;;;1.01;78.65
49315;BME280;36672;50.710;12.498;2022-12-10T09:03:56;97616.84;;;1.29;78.25
49315;BME280;36672;50.710;12.498;2022-12-10T09:06:25;97620.03;;;1.33;78.12
49315;BME280;36672;50.710;12.498;2022-12-10T09:08:52;97608.88;;;1.29;77.90
49315;BME280;36672;50.710;12.498;2022-12-10T09:11:24;97628.50;;;1.37;77.65
49315;BME280;36672;50.710;12.498;2022-12-10T09:13:49;97623.03;;;1.38;77.31
49315;BME280;36672;50.710;12.498;2022-12-10T09:16:15;97606.34;;;1.28;77.35
49315;BME280;36672;50.710;12.498;2022-12-10T09:18:40;97591.72;;;1.24;77.08
49315;BME280;36672;50.710;12.498;2022-12-10T09:21:08;97627.53;;;1.46;76.72
49315;BME280;36672;50.710;12.498;2022-12-10T09:23:34;97624.53;;;1.41;76.67
49315;BME280;36672;50.710;12.498;2022-12-10T09:25:59;97613.69;;;1.34;76.57
49315;BME280;36672;50.710;12.498;2022-12-10T09:28:25;97629.00;;;1.40;76.57
49315;BME280;36672;50.710;12.498;2022-12-10T09:30:58;97606.03;;;1.31;76.54
49315;BME280;36672;50.710;12.498;2022-12-10T09:33:24;97600.88;;;1.29;76.85
49315;BME280;36672;50.710;12.498;2022-12-10T09:35:49;97605.69;;;1.34;76.26
49315;BME280;36672;50.710;12.498;2022-12-10T09:38:15;97627.53;;;1.46;76.48
49315;BME280;36672;50.710;12.498;2022-12-10T09:40:53;97622.84;;;1.48;76.31
49315;BME280;36672;50.710;12.498;2022-12-10T09:46:11;97620.72;;;1.60;76.12
49315;BME280;36672;50.710;12.498;2022-12-10T09:51:37;97619.72;;;1.69;75.92
49315;BME280;36672;50.710;12.498;2022-12-10T09:54:10;97615.06;;;1.71;75.47
49315;BME280;36672;50.710;12.498;2022-12-10T09:56:37;97602.59;;;1.63;75.45
49315;BME280;36672;50.710;12.498;2022-12-10T09:59:40;97619.91;;;1.68;75.03
49315;BME280;36672;50.710;12.498;2022-12-10T10:04:49;97605.06;;;1.57;75.46
49315;BME280;36672;50.710;12.498;2022-12-10T10:07:27;97599.75;;;1.49;75.34
49315;BME280;36672;50.710;12.498;2022-12-10T10:10:00;97606.56;;;1.51;75.52
49315;BME280;36672;50.710;12.498;2022-12-10T10:12:30;97621.72;;;1.59;75.46
49315;BME280;36672;50.710;12.498;2022-12-10T10:14:56;97614.38;;;1.53;75.76
49315;BME280;36672;50.710;12.498;2022-12-10T10:17:34;97597.22;;;1.39;75.44
49315;BME280;36672;50.710;12.498;2022-12-10T10:20:00;97612.72;;;1.52;75.87
49315;BME280;36672;50.710;12.498;2022-12-10T10:22:26;97621.91;;;1.57;75.90
49315;BME280;36672;50.710;12.498;2022-12-10T10:24:51;97607.72;;;1.57;75.86
49315;BME280;36672;50.710;12.498;2022-12-10T10:27:20;97600.25;;;1.52;75.87
49315;BME280;36672;50.710;12.498;2022-12-10T10:29:51;97601.91;;;1.45;75.78
49315;BME280;36672;50.710;12.498;2022-12-10T10:32:28;97612.38;;;1.46;76.25
49315;BME280;36672;50.710;12.498;2022-12-10T10:37:56;97615.50;;;1.25;76.77
49315;BME280;36672;50.710;12.498;2022-12-10T10:40:56;97607.69;;;1.16;76.87
49315;BME280;36672;50.710;12.498;2022-12-10T10:43:20;97603.16;;;1.08;77.22
49315;BME280;36672;50.710;12.498;2022-12-10T10:45:52;97605.47;;;1.03;77.46
49315;BME280;36672;50.710;12.498;2022-12-10T10:48:22;97607.28;;;1.02;77.87
49315;BME280;36672;50.710;12.498;2022-12-10T10:53:26;97607.13;;;1.04;78.14
49315;BME280;36672;50.710;12.498;2022-12-10T10:55:55;97611.47;;;1.05;78.00
49315;BME280;36672;50.710;12.498;2022-12-10T10:58:22;97608.63;;;0.98;77.97
49315;BME280;36672;50.710;12.498;2022-12-10T11:01:14;97608.91;;;0.87;77.97
49315;BME280;36672;50.710;12.498;2022-12-10T11:03:46;97578.91;;;0.68;78.27
49315;BME280;36672;50.710;12.498;2022-12-10T11:06:13;97619.84;;;0.84;78.40
49315;BME280;36672;50.710;12.498;2022-12-10T11:08:38;97600.22;;;0.76;78.77
49315;BME280;36672;50.710;12.498;2022-12-10T11:11:22;97609.22;;;0.84;78.70
49315;BME280;36672;50.710;12.498;2022-12-10T11:13:50;97614.06;;;0.88;78.99
49315;BME280;36672;50.710;12.498;2022-12-10T11:16:21;97591.75;;;0.81;78.43
49315;BME280;36672;50.710;12.498;2022-12-10T11:19:00;97615.25;;;0.94;78.59
49315;BME280;36672;50.710;12.498;2022-12-10T11:21:33;97589.94;;;0.81;78.54
49315;BME280;36672;50.710;12.498;2022-12-10T11:24:00;97612.25;;;0.97;78.44
49315;BME280;36672;50.710;12.498;2022-12-10T11:29:45;97618.06;;;0.92;78.23
49315;BME280;36672;50.710;12.498;2022-12-10T11:35:05;97617.13;;;1.02;78.56
49315;BME280;36672;50.710;12.498;2022-12-10T11:40:55;97618.97;;;1.09;78.05
49315;BME280;36672;50.710;12.498;2022-12-10T11:46:46;97618.63;;;1.12;77.80
49315;BME280;36672;50.710;12.498;2022-12-10T11:49:34;97617.13;;;1.10;77.74
49315;BME280;36672;50.710;12.498;2022-12-10T11:54:46;97607.81;;;1.06;77.55
49315;BME280;36672;50.710;12.498;2022-12-10T12:00:20;97615.75;;;0.97;77.57
49315;BME280;36672;50.710;12.498;2022-12-10T12:08:25;97605.72;;;0.83;77.27
49315;BME280;36672;50.710;12.498;2022-12-10T12:16:23;97590.47;;;0.85;77.37
49315;BME280;36672;50.710;12.498;2022-12-10T12:19:11;97586.25;;;0.74;76.98
49315;BME280;36672;50.710;12.498;2022-12-10T12:21:38;97626.75;;;1.03;77.45
49315;BME280;36672;50.710;12.498;2022-12-10T12:24:12;97607.59;;;0.91;77.24
49315;BME280;36672;50.710;12.498;2022-12-10T12:26:45;97619.44;;;1.05;77.27
49315;BME280;36672;50.710;12.498;2022-12-10T12:29:25;97620.75;;;1.01;77.09
49315;BME280;36672;50.710;12.498;2022-12-10T12:31:59;97631.91;;;1.04;77.08
49315;BME280;36672;50.710;12.498;2022-12-10T12:36:54;97628.75;;;1.09;76.71
49315;BME280;36672;50.710;12.498;2022-12-10T12:39:46;97628.41;;;1.04;76.40
49315;BME280;36672;50.710;12.498;2022-12-10T12:42:29;97628.75;;;1.01;76.13
49315;BME280;36672;50.710;12.498;2022-12-10T12:45:16;97630.59;;;1.00;76.31
49315;BME280;36672;50.710;12.498;2022-12-10T12:50:29;97624.88;;;0.95;75.98
49315;BME280;36672;50.710;12.498;2022-12-10T12:52:59;97619.25;;;0.98;75.92
49315;BME280;36672;50.710;12.498;2022-12-10T12:55:47;97614.75;;;0.98;76.04
49315;BME280;36672;50.710;12.498;2022-12-10T13:01:16;97625.56;;;0.89;76.08
49315;BME280;36672;50.710;12.498;2022-12-10T13:03:44;97599.88;;;0.71;76.06
49315;BME280;36672;50.710;12.498;2022-12-10T13:06:20;97632.16;;;0.85;76.02
49315;BME280;36672;50.710;12.498;2022-12-10T13:08:51;97631.16;;;0.86;76.30
49315;BME280;36672;50.710;12.498;2022-12-10T13:11:33;97638.13;;;0.78;76.30
49315;BME280;36672;50.710;12.498;2022-12-10T13:27:28;97655.09;;;0.51;77.02
49315;BME280;36672;50.710;12.498;2022-12-10T13:30:00;97643.78;;;0.49;77.26
49315;BME280;36672;50.710;12.498;2022-12-10T13:35:28;97656.78;;;0.52;77.12
49315;BME280;36672;50.710;12.498;2022-12-10T13:38:21;97652.09;;;0.46;76.86
49315;BME280;36672;50.710;12.498;2022-12-10T13:40:58;97658.38;;;0.45;77.12
49315;BME280;36672;50.710;12.498;2022-12-10T13:43:52;97662.66;;;0.38;76.68
49315;BME280;36672;50.710;12.498;2022-12-10T13:52:19;97666.97;;;0.39;76.95
49315;BME280;36672;50.710;12.498;2022-12-10T14:00:08;97658.03;;;0.40;76.89
49315;BME280;36672;50.710;12.498;2022-12-10T14:05:42;97645.88;;;0.37;77.03
49315;BME280;36672;50.710;12.498;2022-12-10T14:08:47;97665.28;;;0.29;77.12
49315;BME280;36672;50.710;12.498;2022-12-10T14:11:21;97660.38;;;0.17;77.21
49315;BME280;36672;50.710;12.498;2022-12-10T14:13:52;97674.06;;;0.30;77.55
49315;BME280;36672;50.710;12.498;2022-12-10T14:16:21;97690.84;;;0.30;77.95
49315;BME280;36672;50.710;12.498;2022-12-10T14:19:04;97676.50;;;0.23;77.75
49315;BME280;36672;50.710;12.498;2022-12-10T14:21:37;97665.81;;;0.15;78.03
49315;BME280;36672;50.710;12.498;2022-12-10T14:24:04;97700.34;;;0.33;77.87
49315;BME280;36672;50.710;12.498;2022-12-10T14:26:32;97700.09;;;0.26;78.26
49315;BME280;36672;50.710;12.498;2022-12-10T14:29:00;97695.47;;;0.28;78.30
49315;BME280;36672;50.710;12.498;2022-12-10T14:31:36;97694.13;;;0.24;78.26
49315;BME280;36672;50.710;12.498;2022-12-10T14:34:06;97699.81;;;0.29;78.29
49315;BME280;36672;50.710;12.498;2022-12-10T14:36:34;97702.59;;;0.28;78.11
49315;BME280;36672;50.710;12.498;2022-12-10T14:39:03;97679.94;;;0.15;78.09
49315;BME280;36672;50.710;12.498;2022-12-10T14:41:31;97695.88;;;0.15;78.20
49315;BME280;36672;50.710;12.498;2022-12-10T14:43:58;97710.00;;;0.16;78.46
49315;BME280;36672;50.710;12.498;2022-12-10T14:46:28;97673.81;;;-0.03;78.32
49315;BME280;36672;50.710;12.498;2022-12-10T14:48:55;97676.84;;;0.02;78.14
49315;BME280;36672;50.710;12.498;2022-12-10T14:51:26;97699.53;;;0.14;78.15
49315;BME280;36672;50.710;12.498;2022-12-10T14:53:53;97699.97;;;0.10;77.64
49315;BME280;36672;50.710;12.498;2022-12-10T14:56:28;97700.47;;;0.05;77.93
49315;BME280;36672;50.710;12.498;2022-12-10T14:59:14;97703.56;;;0.01;78.02